Search for airport 
image banner adimage banner adimage banner ad
image banner ad

KSEG - Penn Valley

Located in Selinsgrove, United States

ICAO - SEG, IATA -

Data provided by Airmate  

General information

Coordinates: N40°49'16" W76°51'51"
Elevation is 464 feet MSL.
Magnetic variation is -11° East
View others Airports in Pennsylvania

Operational data

Special qualification required
Current time UTC:
Current local time:
Weather
METAR: KSEG 091641Z AUTO 20005KT 5SM -RA BKN029 OVC037 08/04 A3005 RMK AO2 P0003 T00780044
View NOTAMs / SUP AIP / TFR affecting this airport [VIEW]
Communications frequencies: [VIEW]

Runways:

RWY identifierQFULength (ft)Width (ft)SurfaceLDA (ft)
17159°476075ASPH
35339°476075ASPH

Airport contact information

Address: Selinsgrove United States

Other aviation service providers

Flight schools

Energy Aviation

Energy Aviation
info@energyipt.com+1(570)374-7671

Satellite view of KSEG